sensor_id;sensor_type;location;lat;lon;timestamp;temperature;humidity
10306;DHT22;5198;52.382;9.020;2023-03-05T00:01:29;4.10;99.90
10306;DHT22;5198;52.382;9.020;2023-03-05T00:05:33;4.10;99.90
10306;DHT22;5198;52.382;9.020;2023-03-05T00:09:37;4.10;99.90
10306;DHT22;5198;52.382;9.020;2023-03-05T00:13:40;4.10;99.90
10306;DHT22;5198;52.382;9.020;2023-03-05T00:17:43;4.00;99.90
10306;DHT22;5198;52.382;9.020;2023-03-05T00:21:46;4.00;99.90
10306;DHT22;5198;52.382;9.020;2023-03-05T00:25:50;4.00;99.90
10306;DHT22;5198;52.382;9.020;2023-03-05T00:29:53;4.00;99.90
10306;DHT22;5198;52.382;9.020;2023-03-05T00:33:57;4.00;99.90
10306;DHT22;5198;52.382;9.020;2023-03-05T00:38:00;4.00;99.90
10306;DHT22;5198;52.382;9.020;2023-03-05T00:42:05;4.00;99.90
10306;DHT22;5198;52.382;9.020;2023-03-05T00:46:07;4.00;99.90
10306;DHT22;5198;52.382;9.020;2023-03-05T00:50:10;4.00;99.90
10306;DHT22;5198;52.382;9.020;2023-03-05T00:54:13;4.00;99.90
10306;DHT22;5198;52.382;9.020;2023-03-05T00:58:17;4.00;99.90
10306;DHT22;5198;52.382;9.020;2023-03-05T01:02:20;4.00;99.90
10306;DHT22;5198;52.382;9.020;2023-03-05T01:06:23;4.00;99.90
10306;DHT22;5198;52.382;9.020;2023-03-05T01:10:26;4.00;99.90
10306;DHT22;5198;52.382;9.020;2023-03-05T01:14:30;4.00;99.90
10306;DHT22;5198;52.382;9.020;2023-03-05T01:18:35;4.00;99.90
10306;DHT22;5198;52.382;9.020;2023-03-05T01:22:39;3.90;99.90
10306;DHT22;5198;52.382;9.020;2023-03-05T01:26:41;3.90;99.90
10306;DHT22;5198;52.382;9.020;2023-03-05T01:30:46;3.90;99.90
10306;DHT22;5198;52.382;9.020;2023-03-05T01:34:49;3.90;99.90
10306;DHT22;5198;52.382;9.020;2023-03-05T01:38:52;3.80;99.90
10306;DHT22;5198;52.382;9.020;2023-03-05T01:42:55;3.90;99.90
10306;DHT22;5198;52.382;9.020;2023-03-05T01:47:00;3.80;99.90
10306;DHT22;5198;52.382;9.020;2023-03-05T01:51:03;3.80;99.90
10306;DHT22;5198;52.382;9.020;2023-03-05T01:55:07;3.80;99.90
10306;DHT22;5198;52.382;9.020;2023-03-05T01:59:11;3.80;99.90
10306;DHT22;5198;52.382;9.020;2023-03-05T02:03:15;3.80;99.90
10306;DHT22;5198;52.382;9.020;2023-03-05T02:07:18;3.80;99.90
10306;DHT22;5198;52.382;9.020;2023-03-05T02:11:21;3.80;99.90
10306;DHT22;5198;52.382;9.020;2023-03-05T02:15:24;3.80;99.90
10306;DHT22;5198;52.382;9.020;2023-03-05T02:19:28;3.80;99.90
10306;DHT22;5198;52.382;9.020;2023-03-05T02:23:33;3.80;99.90
10306;DHT22;5198;52.382;9.020;2023-03-05T02:27:37;3.80;99.90
10306;DHT22;5198;52.382;9.020;2023-03-05T02:31:40;3.80;99.90
10306;DHT22;5198;52.382;9.020;2023-03-05T02:35:43;3.80;99.90
10306;DHT22;5198;52.382;9.020;2023-03-05T02:39:48;3.80;99.90
10306;DHT22;5198;52.382;9.020;2023-03-05T02:43:51;3.80;99.90
10306;DHT22;5198;52.382;9.020;2023-03-05T02:47:53;3.80;99.90
10306;DHT22;5198;52.382;9.020;2023-03-05T02:51:56;3.80;99.90
10306;DHT22;5198;52.382;9.020;2023-03-05T02:56:00;3.80;99.90
10306;DHT22;5198;52.382;9.020;2023-03-05T03:00:04;3.80;99.90
10306;DHT22;5198;52.382;9.020;2023-03-05T03:04:07;3.80;99.90
10306;DHT22;5198;52.382;9.020;2023-03-05T03:08:10;3.80;99.90
10306;DHT22;5198;52.382;9.020;2023-03-05T03:12:14;3.80;99.90
10306;DHT22;5198;52.382;9.020;2023-03-05T03:16:17;3.80;99.90
10306;DHT22;5198;52.382;9.020;2023-03-05T03:20:20;3.80;99.90
10306;DHT22;5198;52.382;9.020;2023-03-05T03:24:23;3.80;99.90
10306;DHT22;5198;52.382;9.020;2023-03-05T03:28:27;3.80;99.90
10306;DHT22;5198;52.382;9.020;2023-03-05T03:32:30;3.80;99.90
10306;DHT22;5198;52.382;9.020;2023-03-05T03:36:33;3.90;99.90
10306;DHT22;5198;52.382;9.020;2023-03-05T03:40:36;3.90;99.90
10306;DHT22;5198;52.382;9.020;2023-03-05T03:44:40;3.90;99.90
10306;DHT22;5198;52.382;9.020;2023-03-05T03:48:43;3.80;99.90
10306;DHT22;5198;52.382;9.020;2023-03-05T03:52:45;3.90;99.90
10306;DHT22;5198;52.382;9.020;2023-03-05T03:56:48;3.90;99.90
10306;DHT22;5198;52.382;9.020;2023-03-05T04:00:52;3.90;99.90
10306;DHT22;5198;52.382;9.020;2023-03-05T04:04:55;3.90;99.90
10306;DHT22;5198;52.382;9.020;2023-03-05T04:08:58;3.90;99.90
10306;DHT22;5198;52.382;9.020;2023-03-05T04:13:01;3.90;99.90
10306;DHT22;5198;52.382;9.020;2023-03-05T04:17:06;3.90;99.90
10306;DHT22;5198;52.382;9.020;2023-03-05T04:21:08;3.80;99.90
10306;DHT22;5198;52.382;9.020;2023-03-05T04:25:11;3.80;99.90
10306;DHT22;5198;52.382;9.020;2023-03-05T04:29:14;3.80;99.90
10306;DHT22;5198;52.382;9.020;2023-03-05T04:33:18;3.80;99.90
10306;DHT22;5198;52.382;9.020;2023-03-05T04:37:21;3.70;99.90
10306;DHT22;5198;52.382;9.020;2023-03-05T04:41:24;3.70;99.90
10306;DHT22;5198;52.382;9.020;2023-03-05T04:45:27;3.70;99.90
10306;DHT22;5198;52.382;9.020;2023-03-05T04:49:31;3.70;99.90
10306;DHT22;5198;52.382;9.020;2023-03-05T04:53:34;3.70;99.90
10306;DHT22;5198;52.382;9.020;2023-03-05T04:57:36;3.70;99.90
10306;DHT22;5198;52.382;9.020;2023-03-05T05:01:39;3.70;99.90
10306;DHT22;5198;52.382;9.020;2023-03-05T05:05:44;3.70;99.90
10306;DHT22;5198;52.382;9.020;2023-03-05T05:09:47;3.70;99.90
10306;DHT22;5198;52.382;9.020;2023-03-05T05:13:50;3.70;99.90
10306;DHT22;5198;52.382;9.020;2023-03-05T05:17:53;3.70;99.90
10306;DHT22;5198;52.382;9.020;2023-03-05T05:21:57;3.80;99.90
10306;DHT22;5198;52.382;9.020;2023-03-05T05:26:00;3.80;99.90
10306;DHT22;5198;52.382;9.020;2023-03-05T05:30:04;3.80;99.90
10306;DHT22;5198;52.382;9.020;2023-03-05T05:34:08;3.80;99.90
10306;DHT22;5198;52.382;9.020;2023-03-05T05:38:12;3.70;99.90
10306;DHT22;5198;52.382;9.020;2023-03-05T05:42:15;3.80;99.90
10306;DHT22;5198;52.382;9.020;2023-03-05T05:46:18;3.70;99.90
10306;DHT22;5198;52.382;9.020;2023-03-05T05:50:21;3.70;99.90
10306;DHT22;5198;52.382;9.020;2023-03-05T05:54:26;3.80;99.90
10306;DHT22;5198;52.382;9.020;2023-03-05T05:58:29;3.80;99.90
10306;DHT22;5198;52.382;9.020;2023-03-05T06:02:32;3.80;99.90
10306;DHT22;5198;52.382;9.020;2023-03-05T06:06:35;3.80;99.90
10306;DHT22;5198;52.382;9.020;2023-03-05T06:10:39;3.70;99.90
10306;DHT22;5198;52.382;9.020;2023-03-05T06:14:42;3.70;99.90
10306;DHT22;5198;52.382;9.020;2023-03-05T06:18:45;3.80;99.90
10306;DHT22;5198;52.382;9.020;2023-03-05T06:22:47;3.80;99.90
10306;DHT22;5198;52.382;9.020;2023-03-05T06:26:52;3.80;99.90
10306;DHT22;5198;52.382;9.020;2023-03-05T06:31:01;3.70;99.90
10306;DHT22;5198;52.382;9.020;2023-03-05T06:35:04;3.70;99.90
10306;DHT22;5198;52.382;9.020;2023-03-05T06:39:08;3.80;99.90
10306;DHT22;5198;52.382;9.020;2023-03-05T06:43:12;3.70;99.90
10306;DHT22;5198;52.382;9.020;2023-03-05T06:47:15;3.70;99.90
10306;DHT22;5198;52.382;9.020;2023-03-05T06:51:18;3.70;99.90
10306;DHT22;5198;52.382;9.020;2023-03-05T06:55:22;3.70;99.90
10306;DHT22;5198;52.382;9.020;2023-03-05T06:59:26;3.70;99.90
10306;DHT22;5198;52.382;9.020;2023-03-05T07:03:29;3.70;99.90
10306;DHT22;5198;52.382;9.020;2023-03-05T07:07:31;3.70;99.90
10306;DHT22;5198;52.382;9.020;2023-03-05T07:11:35;3.70;99.90
10306;DHT22;5198;52.382;9.020;2023-03-05T07:15:41;3.70;99.90
10306;DHT22;5198;52.382;9.020;2023-03-05T07:19:44;3.80;99.90
10306;DHT22;5198;52.382;9.020;2023-03-05T07:23:47;3.80;99.90
10306;DHT22;5198;52.382;9.020;2023-03-05T07:27:50;3.80;99.90
10306;DHT22;5198;52.382;9.020;2023-03-05T07:31:54;3.80;99.90
10306;DHT22;5198;52.382;9.020;2023-03-05T07:35:57;3.90;99.90
10306;DHT22;5198;52.382;9.020;2023-03-05T07:40:00;3.90;99.90
10306;DHT22;5198;52.382;9.020;2023-03-05T07:44:03;3.90;99.90
10306;DHT22;5198;52.382;9.020;2023-03-05T07:48:08;3.90;99.90
10306;DHT22;5198;52.382;9.020;2023-03-05T07:52:14;4.00;99.90
10306;DHT22;5198;52.382;9.020;2023-03-05T07:56:19;4.00;99.90
10306;DHT22;5198;52.382;9.020;2023-03-05T08:00:22;4.00;99.90
10306;DHT22;5198;52.382;9.020;2023-03-05T08:04:26;4.10;99.90
10306;DHT22;5198;52.382;9.020;2023-03-05T08:08:32;4.20;99.90
10306;DHT22;5198;52.382;9.020;2023-03-05T08:12:36;4.20;99.90
10306;DHT22;5198;52.382;9.020;2023-03-05T08:16:39;4.20;99.90
10306;DHT22;5198;52.382;9.020;2023-03-05T08:20:43;4.30;99.90
10306;DHT22;5198;52.382;9.020;2023-03-05T08:24:46;4.40;99.90
10306;DHT22;5198;52.382;9.020;2023-03-05T08:28:51;4.60;99.90
10306;DHT22;5198;52.382;9.020;2023-03-05T08:32:54;4.80;99.90
10306;DHT22;5198;52.382;9.020;2023-03-05T08:36:59;5.00;99.90
10306;DHT22;5198;52.382;9.020;2023-03-05T08:41:02;5.30;99.90
10306;DHT22;5198;52.382;9.020;2023-03-05T08:45:05;5.40;99.90
10306;DHT22;5198;52.382;9.020;2023-03-05T08:49:09;5.50;99.90
10306;DHT22;5198;52.382;9.020;2023-03-05T08:53:13;5.50;99.90
10306;DHT22;5198;52.382;9.020;2023-03-05T08:57:16;5.50;99.90
10306;DHT22;5198;52.382;9.020;2023-03-05T09:01:19;5.40;99.90
10306;DHT22;5198;52.382;9.020;2023-03-05T09:05:23;5.40;99.90
10306;DHT22;5198;52.382;9.020;2023-03-05T09:09:27;5.30;99.90
10306;DHT22;5198;52.382;9.020;2023-03-05T09:13:35;5.40;99.90
10306;DHT22;5198;52.382;9.020;2023-03-05T09:17:39;5.70;99.90
10306;DHT22;5198;52.382;9.020;2023-03-05T09:21:42;6.00;99.90
10306;DHT22;5198;52.382;9.020;2023-03-05T09:25:47;6.30;99.90
10306;DHT22;5198;52.382;9.020;2023-03-05T09:29:50;6.70;99.90
10306;DHT22;5198;52.382;9.020;2023-03-05T09:33:53;7.10;99.90
10306;DHT22;5198;52.382;9.020;2023-03-05T09:37:56;7.50;99.90
10306;DHT22;5198;52.382;9.020;2023-03-05T09:42:06;7.70;99.90
10306;DHT22;5198;52.382;9.020;2023-03-05T09:46:19;7.70;99.90
10306;DHT22;5198;52.382;9.020;2023-03-05T09:50:32;7.60;99.90
10306;DHT22;5198;52.382;9.020;2023-03-05T09:54:37;7.50;99.90
10306;DHT22;5198;52.382;9.020;2023-03-05T09:58:42;7.30;99.90
10306;DHT22;5198;52.382;9.020;2023-03-05T10:02:46;7.20;99.90
10306;DHT22;5198;52.382;9.020;2023-03-05T10:06:52;7.20;99.90
10306;DHT22;5198;52.382;9.020;2023-03-05T10:10:58;7.30;99.90
10306;DHT22;5198;52.382;9.020;2023-03-05T10:15:07;7.50;99.90
10306;DHT22;5198;52.382;9.020;2023-03-05T10:19:12;7.60;99.90
10306;DHT22;5198;52.382;9.020;2023-03-05T10:23:36;7.80;99.90
10306;DHT22;5198;52.382;9.020;2023-03-05T10:27:43;7.80;99.90
10306;DHT22;5198;52.382;9.020;2023-03-05T10:31:52;8.00;99.90
10306;DHT22;5198;52.382;9.020;2023-03-05T10:36:13;8.10;99.90
10306;DHT22;5198;52.382;9.020;2023-03-05T10:40:18;8.20;99.90
10306;DHT22;5198;52.382;9.020;2023-03-05T10:44:25;8.50;99.90
10306;DHT22;5198;52.382;9.020;2023-03-05T10:48:34;8.80;99.90
10306;DHT22;5198;52.382;9.020;2023-03-05T10:52:40;8.90;99.90
10306;DHT22;5198;52.382;9.020;2023-03-05T10:56:47;8.90;99.90
10306;DHT22;5198;52.382;9.020;2023-03-05T11:01:00;8.70;99.90
10306;DHT22;5198;52.382;9.020;2023-03-05T11:05:07;8.60;99.90
10306;DHT22;5198;52.382;9.020;2023-03-05T11:09:25;8.60;99.90
10306;DHT22;5198;52.382;9.020;2023-03-05T11:13:30;8.90;99.90
10306;DHT22;5198;52.382;9.020;2023-03-05T11:17:33;9.10;99.90
10306;DHT22;5198;52.382;9.020;2023-03-05T11:21:39;9.20;99.90
10306;DHT22;5198;52.382;9.020;2023-03-05T11:25:55;9.30;99.90
10306;DHT22;5198;52.382;9.020;2023-03-05T11:29:59;9.50;99.90
10306;DHT22;5198;52.382;9.020;2023-03-05T11:34:02;10.00;99.90
10306;DHT22;5198;52.382;9.020;2023-03-05T11:38:14;10.30;99.90
10306;DHT22;5198;52.382;9.020;2023-03-05T11:42:18;10.40;99.90
10306;DHT22;5198;52.382;9.020;2023-03-05T11:46:25;10.20;99.90
10306;DHT22;5198;52.382;9.020;2023-03-05T11:50:29;9.90;99.90
10306;DHT22;5198;52.382;9.020;2023-03-05T11:54:35;9.70;99.90
10306;DHT22;5198;52.382;9.020;2023-03-05T11:58:42;9.60;99.90
10306;DHT22;5198;52.382;9.020;2023-03-05T12:02:48;9.60;99.90
10306;DHT22;5198;52.382;9.020;2023-03-05T12:06:55;9.60;99.90
10306;DHT22;5198;52.382;9.020;2023-03-05T12:11:02;9.80;99.90
10306;DHT22;5198;52.382;9.020;2023-03-05T12:15:24;10.10;99.90
10306;DHT22;5198;52.382;9.020;2023-03-05T12:19:39;10.10;99.90
10306;DHT22;5198;52.382;9.020;2023-03-05T12:23:44;10.00;99.90
10306;DHT22;5198;52.382;9.020;2023-03-05T12:27:48;9.80;99.90
10306;DHT22;5198;52.382;9.020;2023-03-05T12:31:51;9.60;99.90
10306;DHT22;5198;52.382;9.020;2023-03-05T12:35:54;9.40;99.90
10306;DHT22;5198;52.382;9.020;2023-03-05T12:40:21;9.20;99.90
10306;DHT22;5198;52.382;9.020;2023-03-05T12:44:26;9.00;99.90
10306;DHT22;5198;52.382;9.020;2023-03-05T12:48:43;8.90;99.90
10306;DHT22;5198;52.382;9.020;2023-03-05T12:52:46;8.80;99.90
10306;DHT22;5198;52.382;9.020;2023-03-05T12:56:49;8.70;99.90
10306;DHT22;5198;52.382;9.020;2023-03-05T13:00:56;8.60;99.90
10306;DHT22;5198;52.382;9.020;2023-03-05T13:05:03;8.60;99.90
10306;DHT22;5198;52.382;9.020;2023-03-05T13:09:13;8.50;99.90
10306;DHT22;5198;52.382;9.020;2023-03-05T13:13:17;8.50;99.90
10306;DHT22;5198;52.382;9.020;2023-03-05T13:17:33;8.40;99.90
10306;DHT22;5198;52.382;9.020;2023-03-05T13:21:36;8.30;99.90
10306;DHT22;5198;52.382;9.020;2023-03-05T13:25:39;8.10;99.90
10306;DHT22;5198;52.382;9.020;2023-03-05T13:29:49;8.00;99.90
10306;DHT22;5198;52.382;9.020;2023-03-05T13:33:54;7.90;99.90
10306;DHT22;5198;52.382;9.020;2023-03-05T13:37:58;7.90;99.90
10306;DHT22;5198;52.382;9.020;2023-03-05T13:42:02;7.90;99.90
10306;DHT22;5198;52.382;9.020;2023-03-05T13:46:05;7.80;99.90
10306;DHT22;5198;52.382;9.020;2023-03-05T13:50:21;7.80;99.90
10306;DHT22;5198;52.382;9.020;2023-03-05T13:54:24;7.80;99.90
10306;DHT22;5198;52.382;9.020;2023-03-05T13:58:40;7.80;99.90
10306;DHT22;5198;52.382;9.020;2023-03-05T14:02:44;7.90;99.90
10306;DHT22;5198;52.382;9.020;2023-03-05T14:06:50;7.90;99.90
10306;DHT22;5198;52.382;9.020;2023-03-05T14:10:53;8.00;99.90
10306;DHT22;5198;52.382;9.020;2023-03-05T14:14:57;8.10;99.90
10306;DHT22;5198;52.382;9.020;2023-03-05T14:19:03;8.10;99.90
10306;DHT22;5198;52.382;9.020;2023-03-05T14:27:29;8.20;99.90
10306;DHT22;5198;52.382;9.020;2023-03-05T14:31:35;8.20;99.90
10306;DHT22;5198;52.382;9.020;2023-03-05T14:35:39;8.20;99.90
10306;DHT22;5198;52.382;9.020;2023-03-05T14:39:43;8.10;99.90
10306;DHT22;5198;52.382;9.020;2023-03-05T14:43:48;8.10;99.90
10306;DHT22;5198;52.382;9.020;2023-03-05T14:47:52;8.10;99.90
10306;DHT22;5198;52.382;9.020;2023-03-05T14:51:55;8.00;99.90
10306;DHT22;5198;52.382;9.020;2023-03-05T14:55:57;8.00;99.90
10306;DHT22;5198;52.382;9.020;2023-03-05T15:00:02;8.00;99.90
10306;DHT22;5198;52.382;9.020;2023-03-05T15:04:05;8.10;99.90
10306;DHT22;5198;52.382;9.020;2023-03-05T15:08:10;8.30;99.90
10306;DHT22;5198;52.382;9.020;2023-03-05T15:12:15;8.40;99.90
10306;DHT22;5198;52.382;9.020;2023-03-05T15:16:19;8.50;99.90
10306;DHT22;5198;52.382;9.020;2023-03-05T15:20:23;8.50;99.90
10306;DHT22;5198;52.382;9.020;2023-03-05T15:24:27;8.40;99.90
10306;DHT22;5198;52.382;9.020;2023-03-05T15:28:30;8.30;99.90
10306;DHT22;5198;52.382;9.020;2023-03-05T15:32:34;8.20;99.90
10306;DHT22;5198;52.382;9.020;2023-03-05T15:36:37;8.10;99.90
10306;DHT22;5198;52.382;9.020;2023-03-05T15:40:40;8.00;99.90
10306;DHT22;5198;52.382;9.020;2023-03-05T15:44:44;7.90;99.90
10306;DHT22;5198;52.382;9.020;2023-03-05T15:48:48;7.80;99.90
10306;DHT22;5198;52.382;9.020;2023-03-05T15:52:51;7.80;99.90
10306;DHT22;5198;52.382;9.020;2023-03-05T15:56:54;7.70;99.90
10306;DHT22;5198;52.382;9.020;2023-03-05T16:00:58;7.60;99.90
10306;DHT22;5198;52.382;9.020;2023-03-05T16:05:02;7.60;99.90
10306;DHT22;5198;52.382;9.020;2023-03-05T16:09:05;7.60;99.90
10306;DHT22;5198;52.382;9.020;2023-03-05T16:13:08;7.50;99.90
10306;DHT22;5198;52.382;9.020;2023-03-05T16:17:12;7.50;99.90
10306;DHT22;5198;52.382;9.020;2023-03-05T16:21:17;7.40;99.90
10306;DHT22;5198;52.382;9.020;2023-03-05T16:25:20;7.40;99.90
10306;DHT22;5198;52.382;9.020;2023-03-05T16:29:23;7.30;99.90
10306;DHT22;5198;52.382;9.020;2023-03-05T16:33:26;7.20;99.90
10306;DHT22;5198;52.382;9.020;2023-03-05T16:37:30;7.10;99.90
10306;DHT22;5198;52.382;9.020;2023-03-05T16:41:33;7.00;99.90
10306;DHT22;5198;52.382;9.020;2023-03-05T16:45:36;7.00;99.90
10306;DHT22;5198;52.382;9.020;2023-03-05T16:49:39;6.90;99.90
10306;DHT22;5198;52.382;9.020;2023-03-05T16:53:43;6.90;99.90
10306;DHT22;5198;52.382;9.020;2023-03-05T16:57:46;6.80;99.90
10306;DHT22;5198;52.382;9.020;2023-03-05T17:01:49;6.80;99.90
10306;DHT22;5198;52.382;9.020;2023-03-05T17:05:52;6.70;99.90
10306;DHT22;5198;52.382;9.020;2023-03-05T17:09:56;6.60;99.90
10306;DHT22;5198;52.382;9.020;2023-03-05T17:13:59;6.50;99.90
10306;DHT22;5198;52.382;9.020;2023-03-05T17:18:02;6.50;99.90
10306;DHT22;5198;52.382;9.020;2023-03-05T17:22:06;6.40;99.90
10306;DHT22;5198;52.382;9.020;2023-03-05T17:26:12;6.30;99.90
10306;DHT22;5198;52.382;9.020;2023-03-05T17:30:15;6.20;99.90
10306;DHT22;5198;52.382;9.020;2023-03-05T17:34:18;6.20;99.90
10306;DHT22;5198;52.382;9.020;2023-03-05T17:38:35;6.10;99.90
10306;DHT22;5198;52.382;9.020;2023-03-05T17:42:40;6.00;99.90
10306;DHT22;5198;52.382;9.020;2023-03-05T17:46:42;5.90;99.90
10306;DHT22;5198;52.382;9.020;2023-03-05T17:50:45;5.80;99.90
10306;DHT22;5198;52.382;9.020;2023-03-05T17:54:48;5.70;99.90
10306;DHT22;5198;52.382;9.020;2023-03-05T17:58:55;5.60;99.90
10306;DHT22;5198;52.382;9.020;2023-03-05T18:02:58;5.50;99.90
10306;DHT22;5198;52.382;9.020;2023-03-05T18:07:01;5.50;99.90
10306;DHT22;5198;52.382;9.020;2023-03-05T18:11:04;5.40;99.90
10306;DHT22;5198;52.382;9.020;2023-03-05T18:15:10;5.40;99.90
10306;DHT22;5198;52.382;9.020;2023-03-05T18:19:13;5.30;99.90
10306;DHT22;5198;52.382;9.020;2023-03-05T18:23:16;5.30;99.90
10306;DHT22;5198;52.382;9.020;2023-03-05T18:27:18;5.30;99.90
10306;DHT22;5198;52.382;9.020;2023-03-05T18:31:24;5.30;99.90
10306;DHT22;5198;52.382;9.020;2023-03-05T18:35:27;5.20;99.90
10306;DHT22;5198;52.382;9.020;2023-03-05T18:39:30;5.20;99.90
10306;DHT22;5198;52.382;9.020;2023-03-05T18:43:34;5.20;99.90
10306;DHT22;5198;52.382;9.020;2023-03-05T18:47:38;5.20;99.90
10306;DHT22;5198;52.382;9.020;2023-03-05T18:51:42;5.20;99.90
10306;DHT22;5198;52.382;9.020;2023-03-05T18:55:46;5.20;99.90
10306;DHT22;5198;52.382;9.020;2023-03-05T18:59:51;5.20;99.90
10306;DHT22;5198;52.382;9.020;2023-03-05T19:03:56;5.20;99.90
10306;DHT22;5198;52.382;9.020;2023-03-05T19:07:59;5.20;99.90
10306;DHT22;5198;52.382;9.020;2023-03-05T19:12:02;5.20;99.90
10306;DHT22;5198;52.382;9.020;2023-03-05T19:16:05;5.10;99.90
10306;DHT22;5198;52.382;9.020;2023-03-05T19:20:11;5.10;99.90
10306;DHT22;5198;52.382;9.020;2023-03-05T19:24:14;5.10;99.90
10306;DHT22;5198;52.382;9.020;2023-03-05T19:28:17;5.10;99.90
10306;DHT22;5198;52.382;9.020;2023-03-05T19:32:21;5.10;99.90
10306;DHT22;5198;52.382;9.020;2023-03-05T19:36:26;5.10;99.90
10306;DHT22;5198;52.382;9.020;2023-03-05T19:40:29;5.10;99.90
10306;DHT22;5198;52.382;9.020;2023-03-05T19:44:32;5.10;99.90
10306;DHT22;5198;52.382;9.020;2023-03-05T19:48:35;5.10;99.90
10306;DHT22;5198;52.382;9.020;2023-03-05T19:52:39;5.00;99.90
10306;DHT22;5198;52.382;9.020;2023-03-05T19:56:43;5.00;99.90
10306;DHT22;5198;52.382;9.020;2023-03-05T20:00:46;5.00;99.90
10306;DHT22;5198;52.382;9.020;2023-03-05T20:04:49;5.00;99.90
10306;DHT22;5198;52.382;9.020;2023-03-05T20:08:53;5.00;99.90
10306;DHT22;5198;52.382;9.020;2023-03-05T20:12:56;5.00;99.90
10306;DHT22;5198;52.382;9.020;2023-03-05T20:16:59;5.00;99.90
10306;DHT22;5198;52.382;9.020;2023-03-05T20:21:02;5.00;99.90
10306;DHT22;5198;52.382;9.020;2023-03-05T20:25:06;5.00;99.90
10306;DHT22;5198;52.382;9.020;2023-03-05T20:29:10;5.00;99.90
10306;DHT22;5198;52.382;9.020;2023-03-05T20:33:12;4.90;99.90
10306;DHT22;5198;52.382;9.020;2023-03-05T20:37:15;4.90;99.90
10306;DHT22;5198;52.382;9.020;2023-03-05T20:41:19;4.90;99.90
10306;DHT22;5198;52.382;9.020;2023-03-05T20:45:22;4.90;99.90
10306;DHT22;5198;52.382;9.020;2023-03-05T20:49:25;4.90;99.90
10306;DHT22;5198;52.382;9.020;2023-03-05T20:53:28;4.90;99.90
10306;DHT22;5198;52.382;9.020;2023-03-05T20:57:33;4.90;99.90
10306;DHT22;5198;52.382;9.020;2023-03-05T21:01:37;4.90;99.90
10306;DHT22;5198;52.382;9.020;2023-03-05T21:05:41;4.90;99.90
10306;DHT22;5198;52.382;9.020;2023-03-05T21:09:46;4.80;99.90
10306;DHT22;5198;52.382;9.020;2023-03-05T21:13:50;4.80;99.90
10306;DHT22;5198;52.382;9.020;2023-03-05T21:17:53;4.80;99.90
10306;DHT22;5198;52.382;9.020;2023-03-05T21:21:56;4.80;99.90
10306;DHT22;5198;52.382;9.020;2023-03-05T21:26:00;4.70;99.90
10306;DHT22;5198;52.382;9.020;2023-03-05T21:30:06;4.70;99.90
10306;DHT22;5198;52.382;9.020;2023-03-05T21:34:09;4.70;99.90
10306;DHT22;5198;52.382;9.020;2023-03-05T21:38:12;4.70;99.90
10306;DHT22;5198;52.382;9.020;2023-03-05T21:42:15;4.70;99.90
10306;DHT22;5198;52.382;9.020;2023-03-05T21:46:19;4.70;99.90
10306;DHT22;5198;52.382;9.020;2023-03-05T21:50:23;4.60;99.90
10306;DHT22;5198;52.382;9.020;2023-03-05T21:54:26;4.60;99.90
10306;DHT22;5198;52.382;9.020;2023-03-05T21:58:29;4.60;99.90
10306;DHT22;5198;52.382;9.020;2023-03-05T22:02:34;4.60;99.90
10306;DHT22;5198;52.382;9.020;2023-03-05T22:06:37;4.60;99.90
10306;DHT22;5198;52.382;9.020;2023-03-05T22:10:40;4.60;99.90
10306;DHT22;5198;52.382;9.020;2023-03-05T22:14:43;4.60;99.90
10306;DHT22;5198;52.382;9.020;2023-03-05T22:18:47;4.60;99.90
10306;DHT22;5198;52.382;9.020;2023-03-05T22:22:50;4.60;99.90
10306;DHT22;5198;52.382;9.020;2023-03-05T22:26:53;4.60;99.90
10306;DHT22;5198;52.382;9.020;2023-03-05T22:30:56;4.60;99.90
10306;DHT22;5198;52.382;9.020;2023-03-05T22:35:01;4.60;99.90
10306;DHT22;5198;52.382;9.020;2023-03-05T22:39:04;4.60;99.90
10306;DHT22;5198;52.382;9.020;2023-03-05T22:43:07;4.50;99.90
10306;DHT22;5198;52.382;9.020;2023-03-05T22:47:10;4.50;99.90
10306;DHT22;5198;52.382;9.020;2023-03-05T22:51:15;4.50;99.90
10306;DHT22;5198;52.382;9.020;2023-03-05T22:55:18;4.50;99.90
10306;DHT22;5198;52.382;9.020;2023-03-05T22:59:20;4.50;99.90
10306;DHT22;5198;52.382;9.020;2023-03-05T23:03:23;4.50;99.90
10306;DHT22;5198;52.382;9.020;2023-03-05T23:07:29;4.50;99.90
10306;DHT22;5198;52.382;9.020;2023-03-05T23:11:32;4.50;99.90
10306;DHT22;5198;52.382;9.020;2023-03-05T23:15:35;4.50;99.90
10306;DHT22;5198;52.382;9.020;2023-03-05T23:19:39;4.50;99.90
10306;DHT22;5198;52.382;9.020;2023-03-05T23:23:43;4.50;99.90
10306;DHT22;5198;52.382;9.020;2023-03-05T23:27:46;4.50;99.90
10306;DHT22;5198;52.382;9.020;2023-03-05T23:31:52;4.50;99.90
10306;DHT22;5198;52.382;9.020;2023-03-05T23:35:55;4.50;99.90
10306;DHT22;5198;52.382;9.020;2023-03-05T23:40:00;4.50;99.90
10306;DHT22;5198;52.382;9.020;2023-03-05T23:44:03;4.50;99.90
10306;DHT22;5198;52.382;9.020;2023-03-05T23:48:06;4.50;99.90
10306;DHT22;5198;52.382;9.020;2023-03-05T23:52:09;4.50;99.90
10306;DHT22;5198;52.382;9.020;2023-03-05T23:56:13;4.50;99.90
